ICE564 EGLL-BIKF
Flight info
| Callsign | ICE564 |
|---|---|
| Flight time | 2h 32m |
| Altitude | 36000 |
| Route | ULTIB T420 TNT UN57 POL UN601 RIBEL DCT ORSUM DCT BARKU DCT RATSU/M076F360 DCT ALDAN DCT ASRUN ASRUN4N |
| Aircraft | B752/M-SDE2E3FGHIJ3J4J7RWXY/LB1 |
Departure
| Time | 2026-05-07 11:09 |
|---|---|
| Airport | London Heathrow Airport (EGLL) |
Arrival
| Time | 2026-05-07 13:41 |
|---|---|
| Airport | Keflavik International Airport (BIKF) |
| Time | Latitude | Longitude | Altitude | Speed | Heading |
|---|---|---|---|---|---|
| 2026-05-07 10:15 | 51.47035 | -0.46365 | 93 ft | 0 kts | 236° |
| 2026-05-07 10:54 | 51.47037 | -0.46358 | 93 ft | 0 kts | 236° |
| 2026-05-07 10:54 | 51.47043 | -0.46344 | 93 ft | 2 kts | 236° |
| 2026-05-07 10:55 | 51.47052 | -0.46325 | 93 ft | 2 kts | 236° |
| 2026-05-07 10:55 | 51.47060 | -0.46305 | 93 ft | 2 kts | 236° |
| 2026-05-07 10:55 | 51.47069 | -0.46285 | 93 ft | 2 kts | 236° |
| 2026-05-07 10:55 | 51.47075 | -0.46263 | 93 ft | 2 kts | 272° |
| 2026-05-07 10:56 | 51.47071 | -0.46241 | 93 ft | 2 kts | 311° |
| 2026-05-07 10:56 | 51.47065 | -0.46233 | 93 ft | 1 kts | 331° |
| 2026-05-07 10:56 | 51.47061 | -0.46229 | 93 ft | 0 kts | 326° |
| 2026-05-07 10:59 | 51.47068 | -0.46237 | 93 ft | 3 kts | 326° |
| 2026-05-07 10:59 | 51.47097 | -0.46269 | 93 ft | 6 kts | 325° |
| 2026-05-07 11:00 | 51.47136 | -0.46313 | 93 ft | 7 kts | 326° |
| 2026-05-07 11:00 | 51.47180 | -0.46361 | 93 ft | 7 kts | 326° |
| 2026-05-07 11:00 | 51.47226 | -0.46416 | 93 ft | 8 kts | 312° |
| 2026-05-07 11:00 | 51.47239 | -0.46500 | 94 ft | 8 kts | 271° |
| 2026-05-07 11:01 | 51.47239 | -0.46596 | 94 ft | 9 kts | 270° |
| 2026-05-07 11:01 | 51.47239 | -0.46709 | 93 ft | 10 kts | 270° |
| 2026-05-07 11:01 | 51.47232 | -0.46830 | 93 ft | 10 kts | 241° |
| 2026-05-07 11:01 | 51.47171 | -0.46867 | 93 ft | 9 kts | 182° |
| 2026-05-07 11:02 | 51.47101 | -0.46866 | 93 ft | 10 kts | 180° |
| 2026-05-07 11:02 | 51.47024 | -0.46866 | 93 ft | 11 kts | 180° |
| 2026-05-07 11:02 | 51.46941 | -0.46864 | 93 ft | 12 kts | 180° |
| 2026-05-07 11:02 | 51.46851 | -0.46864 | 93 ft | 12 kts | 180° |
| 2026-05-07 11:03 | 51.46817 | -0.46864 | 93 ft | 0 kts | 180° |
| 2026-05-07 11:04 | 51.46816 | -0.46864 | 93 ft | 1 kts | 180° |
| 2026-05-07 11:04 | 51.46791 | -0.46864 | 94 ft | 5 kts | 180° |
| 2026-05-07 11:04 | 51.46756 | -0.46883 | 94 ft | 4 kts | 231° |
| 2026-05-07 11:04 | 51.46751 | -0.46943 | 93 ft | 6 kts | 265° |
| 2026-05-07 11:05 | 51.46747 | -0.47057 | 93 ft | 12 kts | 269° |
| 2026-05-07 11:05 | 51.46746 | -0.47218 | 93 ft | 16 kts | 270° |
| 2026-05-07 11:05 | 51.46746 | -0.47422 | 94 ft | 20 kts | 270° |
| 2026-05-07 11:05 | 51.46744 | -0.47654 | 94 ft | 20 kts | 270° |
| 2026-05-07 11:06 | 51.46743 | -0.47880 | 93 ft | 19 kts | 269° |
| 2026-05-07 11:06 | 51.46742 | -0.48090 | 94 ft | 18 kts | 270° |
| 2026-05-07 11:06 | 51.46742 | -0.48290 | 94 ft | 17 kts | 270° |
| 2026-05-07 11:06 | 51.46741 | -0.48473 | 94 ft | 16 kts | 270° |
| 2026-05-07 11:07 | 51.46740 | -0.48649 | 94 ft | 14 kts | 270° |
| 2026-05-07 11:07 | 51.46703 | -0.48744 | 94 ft | 9 kts | 188° |
| 2026-05-07 11:07 | 51.46640 | -0.48751 | 94 ft | 8 kts | 187° |
| 2026-05-07 11:07 | 51.46587 | -0.48775 | 94 ft | 7 kts | 198° |
| 2026-05-07 11:08 | 51.46538 | -0.48788 | 94 ft | 7 kts | 177° |
| 2026-05-07 11:08 | 51.46492 | -0.48746 | 94 ft | 8 kts | 126° |
| 2026-05-07 11:08 | 51.46476 | -0.48640 | 94 ft | 11 kts | 92° |
| 2026-05-07 11:08 | 51.46478 | -0.48504 | 94 ft | 13 kts | 90° |
| 2026-05-07 11:09 | 51.46478 | -0.48202 | 94 ft | 57 kts | 90° |
| 2026-05-07 11:09 | 51.46475 | -0.47154 | 94 ft | 125 kts | 89° |
| 2026-05-07 11:09 | 51.46487 | -0.45359 | 218 ft | 186 kts | 91° |
| 2026-05-07 11:09 | 51.46478 | -0.43137 | 753 ft | 204 kts | 90° |
| 2026-05-07 11:10 | 51.46623 | -0.40898 | 1226 ft | 202 kts | 76° |
| 2026-05-07 11:10 | 51.47332 | -0.38810 | 1561 ft | 229 kts | 50° |
| 2026-05-07 11:10 | 51.48394 | -0.36838 | 2295 ft | 238 kts | 50° |
| 2026-05-07 11:10 | 51.49488 | -0.34817 | 3203 ft | 241 kts | 49° |
| 2026-05-07 11:11 | 51.50597 | -0.32838 | 4023 ft | 246 kts | 49° |
| 2026-05-07 11:11 | 51.51671 | -0.30680 | 4817 ft | 251 kts | 63° |
| 2026-05-07 11:11 | 51.52376 | -0.28123 | 5626 ft | 254 kts | 69° |
| 2026-05-07 11:11 | 51.53054 | -0.25381 | 5936 ft | 273 kts | 70° |
| 2026-05-07 11:12 | 51.53723 | -0.22504 | 5923 ft | 276 kts | 71° |
| 2026-05-07 11:12 | 51.54568 | -0.19763 | 5930 ft | 274 kts | 51° |
| 2026-05-07 11:12 | 51.56070 | -0.17896 | 5959 ft | 278 kts | 22° |
| 2026-05-07 11:12 | 51.57943 | -0.17350 | 5956 ft | 279 kts | 355° |
| 2026-05-07 11:13 | 51.59790 | -0.18274 | 5953 ft | 278 kts | 326° |
| 2026-05-07 11:13 | 51.61164 | -0.20427 | 5954 ft | 277 kts | 306° |
| 2026-05-07 11:13 | 51.62470 | -0.22711 | 5926 ft | 279 kts | 319° |
| 2026-05-07 11:13 | 51.63971 | -0.24720 | 5925 ft | 278 kts | 321° |
| 2026-05-07 11:14 | 51.65499 | -0.26592 | 5923 ft | 276 kts | 324° |
| 2026-05-07 11:14 | 51.67155 | -0.28377 | 6079 ft | 287 kts | 326° |
| 2026-05-07 11:14 | 51.68775 | -0.30110 | 7177 ft | 280 kts | 327° |
| 2026-05-07 11:14 | 51.70420 | -0.31792 | 7965 ft | 284 kts | 328° |
| 2026-05-07 11:15 | 51.72115 | -0.33478 | 8747 ft | 286 kts | 328° |
| 2026-05-07 11:15 | 51.73809 | -0.35144 | 9486 ft | 288 kts | 329° |
| 2026-05-07 11:15 | 51.75517 | -0.36811 | 10198 ft | 291 kts | 329° |
| 2026-05-07 11:15 | 51.77298 | -0.38542 | 10588 ft | 306 kts | 329° |
| 2026-05-07 11:16 | 51.79165 | -0.40354 | 10797 ft | 325 kts | 329° |
| 2026-05-07 11:16 | 51.81107 | -0.42237 | 11043 ft | 342 kts | 329° |
| 2026-05-07 11:16 | 51.83129 | -0.44199 | 11691 ft | 344 kts | 329° |
| 2026-05-07 11:16 | 51.85197 | -0.46207 | 12327 ft | 348 kts | 329° |
| 2026-05-07 11:17 | 51.87267 | -0.48218 | 12954 ft | 351 kts | 329° |
| 2026-05-07 11:17 | 51.89351 | -0.50245 | 13590 ft | 353 kts | 329° |
| 2026-05-07 11:17 | 51.91468 | -0.52307 | 14211 ft | 357 kts | 329° |
| 2026-05-07 11:17 | 51.93599 | -0.54384 | 14799 ft | 360 kts | 329° |
| 2026-05-07 11:18 | 51.95759 | -0.56492 | 15407 ft | 363 kts | 328° |
| 2026-05-07 11:18 | 51.97917 | -0.58600 | 15980 ft | 366 kts | 328° |
| 2026-05-07 11:18 | 52.00111 | -0.60746 | 16557 ft | 368 kts | 328° |
| 2026-05-07 11:18 | 52.02309 | -0.62899 | 17113 ft | 371 kts | 328° |
| 2026-05-07 11:19 | 52.04514 | -0.65060 | 17653 ft | 375 kts | 327° |
| 2026-05-07 11:19 | 52.06791 | -0.67295 | 18274 ft | 378 kts | 327° |
| 2026-05-07 11:19 | 52.09110 | -0.69575 | 18848 ft | 382 kts | 327° |
| 2026-05-07 11:19 | 52.11370 | -0.71799 | 19383 ft | 386 kts | 327° |
| 2026-05-07 11:20 | 52.13709 | -0.74104 | 19931 ft | 389 kts | 327° |
| 2026-05-07 11:20 | 52.16078 | -0.76441 | 20458 ft | 392 kts | 328° |
| 2026-05-07 11:20 | 52.18425 | -0.78759 | 20975 ft | 395 kts | 328° |
| 2026-05-07 11:20 | 52.20797 | -0.81104 | 21481 ft | 398 kts | 328° |
| 2026-05-07 11:21 | 52.23178 | -0.83461 | 21929 ft | 403 kts | 328° |
| 2026-05-07 11:21 | 52.25599 | -0.85862 | 22405 ft | 406 kts | 328° |
| 2026-05-07 11:21 | 52.28022 | -0.88268 | 22860 ft | 409 kts | 328° |
| 2026-05-07 11:21 | 52.30441 | -0.90672 | 23306 ft | 412 kts | 328° |
| 2026-05-07 11:22 | 52.32909 | -0.93128 | 23728 ft | 415 kts | 328° |
| 2026-05-07 11:22 | 52.35382 | -0.95592 | 24140 ft | 419 kts | 328° |
| 2026-05-07 11:22 | 52.37890 | -0.98096 | 24554 ft | 423 kts | 328° |
| 2026-05-07 11:22 | 52.40428 | -1.00632 | 25044 ft | 425 kts | 328° |
| 2026-05-07 11:23 | 52.42964 | -1.03169 | 25534 ft | 428 kts | 329° |
| 2026-05-07 11:23 | 52.45502 | -1.05713 | 25980 ft | 431 kts | 329° |
| 2026-05-07 11:23 | 52.48103 | -1.08322 | 26416 ft | 434 kts | 329° |
| 2026-05-07 11:23 | 52.50666 | -1.10898 | 26828 ft | 437 kts | 329° |
| 2026-05-07 11:24 | 52.53287 | -1.13534 | 27232 ft | 440 kts | 329° |
| 2026-05-07 11:24 | 52.55874 | -1.16142 | 27644 ft | 442 kts | 329° |
| 2026-05-07 11:24 | 52.58508 | -1.18797 | 28080 ft | 444 kts | 329° |
| 2026-05-07 11:24 | 52.61156 | -1.21471 | 28432 ft | 447 kts | 329° |
| 2026-05-07 11:25 | 52.63819 | -1.24164 | 28801 ft | 450 kts | 329° |
| 2026-05-07 11:25 | 52.66478 | -1.26856 | 29174 ft | 452 kts | 329° |
| 2026-05-07 11:25 | 52.69171 | -1.29587 | 29530 ft | 454 kts | 329° |
| 2026-05-07 11:25 | 52.71881 | -1.32342 | 29883 ft | 457 kts | 329° |
| 2026-05-07 11:26 | 52.74617 | -1.35127 | 30233 ft | 459 kts | 329° |
| 2026-05-07 11:26 | 52.77341 | -1.37905 | 30352 ft | 463 kts | 330° |
| 2026-05-07 11:26 | 52.80070 | -1.40694 | 30929 ft | 456 kts | 330° |
| 2026-05-07 11:26 | 52.82734 | -1.43419 | 31394 ft | 454 kts | 330° |
| 2026-05-07 11:27 | 52.85418 | -1.46167 | 31789 ft | 453 kts | 330° |
| 2026-05-07 11:27 | 52.88122 | -1.48940 | 32192 ft | 453 kts | 330° |
| 2026-05-07 11:27 | 52.90785 | -1.51677 | 32590 ft | 452 kts | 330° |
| 2026-05-07 11:27 | 52.93460 | -1.54428 | 32990 ft | 450 kts | 330° |
| 2026-05-07 11:28 | 52.96122 | -1.57172 | 33393 ft | 448 kts | 330° |
| 2026-05-07 11:28 | 52.98777 | -1.59912 | 33798 ft | 446 kts | 330° |
| 2026-05-07 11:28 | 53.01419 | -1.62643 | 34198 ft | 444 kts | 330° |
| 2026-05-07 11:28 | 53.04048 | -1.65330 | 34594 ft | 440 kts | 332° |
| 2026-05-07 11:29 | 53.06813 | -1.67490 | 35006 ft | 434 kts | 341° |
| 2026-05-07 11:29 | 53.09678 | -1.69270 | 35316 ft | 430 kts | 341° |
| 2026-05-07 11:29 | 53.12440 | -1.70962 | 35590 ft | 426 kts | 341° |
| 2026-05-07 11:29 | 53.15205 | -1.72663 | 35857 ft | 422 kts | 341° |
| 2026-05-07 11:30 | 53.17964 | -1.74369 | 36091 ft | 416 kts | 340° |
| 2026-05-07 11:30 | 53.20643 | -1.76030 | 36321 ft | 410 kts | 340° |
| 2026-05-07 11:30 | 53.23296 | -1.77680 | 36555 ft | 403 kts | 340° |
| 2026-05-07 11:30 | 53.25899 | -1.79300 | 36672 ft | 402 kts | 340° |
| 2026-05-07 11:31 | 53.28566 | -1.80965 | 36134 ft | 412 kts | 340° |
| 2026-05-07 11:31 | 53.31251 | -1.82643 | 36052 ft | 418 kts | 340° |
| 2026-05-07 11:31 | 53.36786 | -1.86107 | 36013 ft | 427 kts | 340° |
| 2026-05-07 11:32 | 53.45226 | -1.91410 | 36001 ft | 439 kts | 340° |
| 2026-05-07 11:33 | 53.51020 | -1.95064 | 36001 ft | 447 kts | 340° |
| 2026-05-07 11:33 | 53.56932 | -1.98803 | 36005 ft | 454 kts | 340° |
| 2026-05-07 11:34 | 53.62870 | -2.02570 | 36006 ft | 461 kts | 340° |
| 2026-05-07 11:34 | 53.68948 | -2.06438 | 36005 ft | 466 kts | 340° |
| 2026-05-07 11:35 | 53.74963 | -2.10300 | 36006 ft | 465 kts | 338° |
| 2026-05-07 11:35 | 53.80975 | -2.14420 | 36006 ft | 465 kts | 338° |
| 2026-05-07 11:36 | 53.86959 | -2.18494 | 36009 ft | 465 kts | 338° |
| 2026-05-07 11:36 | 53.92933 | -2.22581 | 36005 ft | 465 kts | 338° |
| 2026-05-07 11:37 | 53.98909 | -2.26685 | 36009 ft | 465 kts | 338° |
| 2026-05-07 11:37 | 54.04747 | -2.31478 | 36007 ft | 466 kts | 332° |
| 2026-05-07 11:38 | 54.10444 | -2.36619 | 35997 ft | 466 kts | 332° |
| 2026-05-07 11:38 | 54.16263 | -2.41912 | 35991 ft | 465 kts | 332° |
| 2026-05-07 11:39 | 54.21951 | -2.47159 | 35987 ft | 465 kts | 332° |
| 2026-05-07 11:39 | 54.27672 | -2.52331 | 35990 ft | 467 kts | 333° |
| 2026-05-07 11:40 | 54.33418 | -2.57392 | 35997 ft | 467 kts | 332° |
| 2026-05-07 11:40 | 54.39124 | -2.62582 | 35991 ft | 466 kts | 332° |
| 2026-05-07 11:41 | 54.44859 | -2.67867 | 35989 ft | 466 kts | 330° |
| 2026-05-07 11:41 | 54.50580 | -2.73173 | 35976 ft | 465 kts | 330° |
| 2026-05-07 11:42 | 54.56270 | -2.78474 | 35976 ft | 465 kts | 330° |
| 2026-05-07 11:42 | 54.61968 | -2.83803 | 35975 ft | 466 kts | 330° |
| 2026-05-07 11:43 | 54.67718 | -2.89197 | 35972 ft | 466 kts | 330° |
| 2026-05-07 11:43 | 54.73392 | -2.94538 | 35981 ft | 467 kts | 330° |
| 2026-05-07 11:44 | 54.79134 | -2.99960 | 35989 ft | 466 kts | 330° |
| 2026-05-07 11:44 | 54.84800 | -3.05329 | 35985 ft | 465 kts | 330° |
| 2026-05-07 11:45 | 54.90494 | -3.10740 | 35989 ft | 466 kts | 329° |
| 2026-05-07 11:45 | 54.96199 | -3.16181 | 35991 ft | 465 kts | 329° |
| 2026-05-07 11:46 | 55.01845 | -3.21582 | 35976 ft | 466 kts | 329° |
| 2026-05-07 11:46 | 55.07532 | -3.27044 | 35968 ft | 467 kts | 329° |
| 2026-05-07 11:47 | 55.13232 | -3.32604 | 35956 ft | 466 kts | 328° |
| 2026-05-07 11:47 | 55.18893 | -3.38151 | 35952 ft | 466 kts | 330° |
| 2026-05-07 11:48 | 55.24591 | -3.43573 | 35952 ft | 466 kts | 329° |
| 2026-05-07 11:48 | 55.30271 | -3.49064 | 35956 ft | 466 kts | 329° |
| 2026-05-07 11:49 | 55.35925 | -3.54584 | 35951 ft | 466 kts | 328° |
| 2026-05-07 11:49 | 55.41510 | -3.60337 | 35952 ft | 467 kts | 328° |
| 2026-05-07 11:50 | 55.47209 | -3.65810 | 35951 ft | 468 kts | 329° |
| 2026-05-07 11:50 | 55.52907 | -3.71330 | 35949 ft | 466 kts | 327° |
| 2026-05-07 11:51 | 55.58496 | -3.77122 | 35952 ft | 466 kts | 327° |
| 2026-05-07 11:51 | 55.64137 | -3.82816 | 35948 ft | 466 kts | 327° |
| 2026-05-07 11:52 | 55.69806 | -3.88494 | 35963 ft | 466 kts | 327° |
| 2026-05-07 11:52 | 55.75438 | -3.94157 | 35977 ft | 465 kts | 327° |
| 2026-05-07 11:53 | 55.81049 | -3.99851 | 35970 ft | 465 kts | 327° |
| 2026-05-07 11:53 | 55.86684 | -4.05539 | 35954 ft | 467 kts | 327° |
| 2026-05-07 11:54 | 55.92321 | -4.11190 | 35956 ft | 467 kts | 327° |
| 2026-05-07 11:54 | 55.97996 | -4.16883 | 35951 ft | 466 kts | 327° |
| 2026-05-07 11:55 | 56.03649 | -4.22541 | 35946 ft | 466 kts | 327° |
| 2026-05-07 11:55 | 56.09270 | -4.28224 | 35944 ft | 466 kts | 327° |
| 2026-05-07 11:56 | 56.14979 | -4.34046 | 35928 ft | 466 kts | 326° |
| 2026-05-07 11:56 | 56.20608 | -4.39816 | 35923 ft | 467 kts | 326° |
| 2026-05-07 11:57 | 56.26224 | -4.45597 | 35919 ft | 467 kts | 326° |
| 2026-05-07 11:57 | 56.31879 | -4.51438 | 35906 ft | 467 kts | 326° |
| 2026-05-07 11:58 | 56.37470 | -4.57247 | 35907 ft | 468 kts | 326° |
| 2026-05-07 11:58 | 56.43106 | -4.63157 | 35898 ft | 467 kts | 326° |
| 2026-05-07 11:59 | 56.48727 | -4.69000 | 35901 ft | 466 kts | 325° |
| 2026-05-07 11:59 | 56.54314 | -4.74881 | 35895 ft | 466 kts | 324° |
| 2026-05-07 12:00 | 56.59900 | -4.80736 | 35886 ft | 467 kts | 325° |
| 2026-05-07 12:00 | 56.65507 | -4.86636 | 35879 ft | 466 kts | 324° |
| 2026-05-07 12:01 | 56.71101 | -4.92538 | 35861 ft | 467 kts | 324° |
| 2026-05-07 12:01 | 56.76720 | -4.98497 | 35847 ft | 468 kts | 324° |
| 2026-05-07 12:02 | 56.82317 | -5.04458 | 35846 ft | 466 kts | 324° |
| 2026-05-07 12:02 | 56.87899 | -5.10429 | 35855 ft | 466 kts | 324° |
| 2026-05-07 12:03 | 56.93494 | -5.16434 | 35860 ft | 467 kts | 324° |
| 2026-05-07 12:03 | 56.99094 | -5.22464 | 35863 ft | 467 kts | 323° |
| 2026-05-07 12:04 | 57.04687 | -5.28507 | 35848 ft | 467 kts | 324° |
| 2026-05-07 12:04 | 57.10338 | -5.34349 | 35853 ft | 469 kts | 324° |
| 2026-05-07 12:05 | 57.16020 | -5.40280 | 35851 ft | 469 kts | 324° |
| 2026-05-07 12:05 | 57.21677 | -5.46184 | 35856 ft | 469 kts | 324° |
| 2026-05-07 12:06 | 57.27369 | -5.52118 | 35861 ft | 469 kts | 324° |
| 2026-05-07 12:06 | 57.33021 | -5.58013 | 35850 ft | 470 kts | 325° |
| 2026-05-07 12:07 | 57.38773 | -5.63719 | 35839 ft | 470 kts | 325° |
| 2026-05-07 12:07 | 57.44500 | -5.69611 | 35825 ft | 468 kts | 324° |
| 2026-05-07 12:08 | 57.49627 | -5.74976 | 35821 ft | 467 kts | 323° |
| 2026-05-07 12:08 | 57.55237 | -5.80898 | 35824 ft | 469 kts | 323° |
| 2026-05-07 12:09 | 57.60918 | -5.86926 | 35831 ft | 470 kts | 323° |
| 2026-05-07 12:09 | 57.66573 | -5.92953 | 35833 ft | 469 kts | 323° |
| 2026-05-07 12:10 | 57.72210 | -5.98984 | 35831 ft | 470 kts | 323° |
| 2026-05-07 12:10 | 57.77860 | -6.05052 | 35825 ft | 470 kts | 323° |
| 2026-05-07 12:11 | 57.83483 | -6.11111 | 35822 ft | 469 kts | 323° |
| 2026-05-07 12:11 | 57.89123 | -6.17213 | 35792 ft | 469 kts | 323° |
| 2026-05-07 12:12 | 57.94766 | -6.23340 | 35796 ft | 470 kts | 323° |
| 2026-05-07 12:12 | 58.00393 | -6.29471 | 35795 ft | 469 kts | 323° |
| 2026-05-07 12:13 | 58.06007 | -6.35611 | 35779 ft | 469 kts | 323° |
| 2026-05-07 12:13 | 58.11668 | -6.41825 | 35763 ft | 470 kts | 323° |
| 2026-05-07 12:14 | 58.17254 | -6.47980 | 35762 ft | 469 kts | 322° |
| 2026-05-07 12:14 | 58.22878 | -6.54201 | 35759 ft | 470 kts | 323° |
| 2026-05-07 12:15 | 58.28510 | -6.60450 | 35752 ft | 468 kts | 322° |
| 2026-05-07 12:15 | 58.34112 | -6.66692 | 35761 ft | 468 kts | 322° |
| 2026-05-07 12:16 | 58.39670 | -6.72907 | 35945 ft | 468 kts | 322° |
| 2026-05-07 12:16 | 58.42489 | -6.76070 | 35802 ft | 470 kts | 321° |
| 2026-05-07 12:16 | 58.45272 | -6.79193 | 35746 ft | 467 kts | 321° |
| 2026-05-07 12:17 | 58.50847 | -6.85474 | 35741 ft | 465 kts | 321° |
| 2026-05-07 12:17 | 58.56392 | -6.91748 | 35741 ft | 468 kts | 321° |
| 2026-05-07 12:18 | 58.61939 | -6.98039 | 35731 ft | 465 kts | 321° |
| 2026-05-07 12:18 | 58.67532 | -7.04415 | 35726 ft | 467 kts | 321° |
| 2026-05-07 12:19 | 58.73078 | -7.10759 | 35713 ft | 467 kts | 322° |
| 2026-05-07 12:19 | 58.78619 | -7.17118 | 35717 ft | 467 kts | 322° |
| 2026-05-07 12:20 | 58.84185 | -7.23531 | 35716 ft | 468 kts | 321° |
| 2026-05-07 12:20 | 58.89740 | -7.29955 | 35708 ft | 466 kts | 321° |
| 2026-05-07 12:21 | 58.95283 | -7.36389 | 35695 ft | 466 kts | 322° |
| 2026-05-07 12:21 | 59.00835 | -7.42862 | 35686 ft | 466 kts | 322° |
| 2026-05-07 12:22 | 59.06349 | -7.49310 | 35691 ft | 464 kts | 322° |
| 2026-05-07 12:22 | 59.11875 | -7.55800 | 35687 ft | 467 kts | 322° |
| 2026-05-07 12:23 | 59.17409 | -7.62322 | 35675 ft | 465 kts | 322° |
| 2026-05-07 12:23 | 59.22918 | -7.68842 | 35667 ft | 465 kts | 322° |
| 2026-05-07 12:24 | 59.28418 | -7.75375 | 35669 ft | 465 kts | 322° |
| 2026-05-07 12:24 | 59.33952 | -7.81975 | 35676 ft | 466 kts | 322° |
| 2026-05-07 12:25 | 59.39460 | -7.88566 | 35649 ft | 466 kts | 322° |
| 2026-05-07 12:25 | 59.44980 | -7.95201 | 35638 ft | 468 kts | 322° |
| 2026-05-07 12:26 | 59.50524 | -8.01886 | 35646 ft | 468 kts | 322° |
| 2026-05-07 12:26 | 59.56045 | -8.08573 | 35638 ft | 467 kts | 322° |
| 2026-05-07 12:27 | 59.61560 | -8.15278 | 35631 ft | 467 kts | 323° |
| 2026-05-07 12:27 | 59.67094 | -8.22031 | 35643 ft | 467 kts | 323° |
| 2026-05-07 12:28 | 59.72585 | -8.28760 | 35649 ft | 468 kts | 323° |
| 2026-05-07 12:28 | 59.78114 | -8.35560 | 35639 ft | 468 kts | 323° |
| 2026-05-07 12:29 | 59.83624 | -8.42365 | 35636 ft | 468 kts | 323° |
| 2026-05-07 12:29 | 59.89141 | -8.49206 | 35629 ft | 469 kts | 323° |
| 2026-05-07 12:30 | 59.94626 | -8.56031 | 35621 ft | 468 kts | 323° |
| 2026-05-07 12:30 | 60.00162 | -8.62951 | 35614 ft | 468 kts | 324° |
| 2026-05-07 12:31 | 60.05649 | -8.69834 | 35612 ft | 467 kts | 323° |
| 2026-05-07 12:31 | 60.11134 | -8.76743 | 35605 ft | 468 kts | 323° |
| 2026-05-07 12:32 | 60.16599 | -8.83656 | 35605 ft | 469 kts | 323° |
| 2026-05-07 12:32 | 60.22106 | -8.90650 | 35609 ft | 470 kts | 323° |
| 2026-05-07 12:33 | 60.30346 | -9.01164 | 35612 ft | 471 kts | 323° |
| 2026-05-07 12:33 | 60.35849 | -9.08222 | 35607 ft | 470 kts | 323° |
| 2026-05-07 12:34 | 60.41337 | -9.15291 | 35606 ft | 470 kts | 323° |
| 2026-05-07 12:34 | 60.46837 | -9.22404 | 35601 ft | 471 kts | 323° |
| 2026-05-07 12:35 | 60.52302 | -9.29499 | 35598 ft | 470 kts | 323° |
| 2026-05-07 12:35 | 60.57796 | -9.36661 | 35592 ft | 470 kts | 323° |
| 2026-05-07 12:36 | 60.63133 | -9.44172 | 35598 ft | 470 kts | 321° |
| 2026-05-07 12:36 | 60.68427 | -9.51957 | 35593 ft | 469 kts | 321° |
| 2026-05-07 12:37 | 60.73685 | -9.59741 | 35592 ft | 470 kts | 321° |
| 2026-05-07 12:37 | 60.78929 | -9.67542 | 35594 ft | 470 kts | 320° |
| 2026-05-07 12:38 | 60.84188 | -9.75399 | 35589 ft | 471 kts | 320° |
| 2026-05-07 12:38 | 60.89479 | -9.83340 | 35597 ft | 472 kts | 320° |
| 2026-05-07 12:39 | 60.94748 | -9.91280 | 35593 ft | 471 kts | 320° |
| 2026-05-07 12:39 | 60.99509 | -10.00169 | 35603 ft | 462 kts | 304° |
| 2026-05-07 12:40 | 61.02938 | -10.11247 | 35591 ft | 460 kts | 297° |
| 2026-05-07 12:40 | 61.06131 | -10.22625 | 35588 ft | 459 kts | 296° |
| 2026-05-07 12:41 | 61.09260 | -10.34039 | 35596 ft | 460 kts | 296° |
| 2026-05-07 12:41 | 61.12357 | -10.45478 | 35594 ft | 459 kts | 296° |
| 2026-05-07 12:42 | 61.15443 | -10.56963 | 35601 ft | 460 kts | 296° |
| 2026-05-07 12:42 | 61.18528 | -10.68518 | 35591 ft | 459 kts | 296° |
| 2026-05-07 12:43 | 61.21605 | -10.80107 | 35598 ft | 460 kts | 296° |
| 2026-05-07 12:43 | 61.24662 | -10.91681 | 35580 ft | 461 kts | 296° |
| 2026-05-07 12:44 | 61.27724 | -11.03335 | 35605 ft | 462 kts | 296° |
| 2026-05-07 12:44 | 61.30791 | -11.15067 | 35633 ft | 462 kts | 296° |
| 2026-05-07 12:45 | 61.33818 | -11.26718 | 35612 ft | 462 kts | 296° |
| 2026-05-07 12:45 | 61.36865 | -11.38508 | 35608 ft | 462 kts | 296° |
| 2026-05-07 12:46 | 61.39879 | -11.50237 | 35623 ft | 462 kts | 296° |
| 2026-05-07 12:46 | 61.42879 | -11.61972 | 35641 ft | 462 kts | 296° |
| 2026-05-07 12:47 | 61.45888 | -11.73807 | 35660 ft | 462 kts | 296° |
| 2026-05-07 12:47 | 61.48875 | -11.85617 | 35654 ft | 462 kts | 296° |
| 2026-05-07 12:48 | 61.51875 | -11.97543 | 35658 ft | 462 kts | 296° |
| 2026-05-07 12:48 | 61.54848 | -12.09426 | 35679 ft | 463 kts | 296° |
| 2026-05-07 12:49 | 61.57816 | -12.21354 | 35684 ft | 463 kts | 296° |
| 2026-05-07 12:49 | 61.60768 | -12.33276 | 35701 ft | 463 kts | 296° |
| 2026-05-07 12:50 | 61.63708 | -12.45223 | 35710 ft | 462 kts | 296° |
| 2026-05-07 12:50 | 61.66647 | -12.57223 | 35708 ft | 463 kts | 296° |
| 2026-05-07 12:51 | 61.69553 | -12.69160 | 35748 ft | 463 kts | 296° |
| 2026-05-07 12:51 | 61.72486 | -12.81272 | 35750 ft | 465 kts | 296° |
| 2026-05-07 12:52 | 61.75405 | -12.93389 | 35755 ft | 463 kts | 296° |
| 2026-05-07 12:52 | 61.78279 | -13.05390 | 35767 ft | 463 kts | 296° |
| 2026-05-07 12:53 | 61.81170 | -13.17531 | 35778 ft | 463 kts | 296° |
| 2026-05-07 12:53 | 61.84045 | -13.29671 | 35799 ft | 463 kts | 296° |
| 2026-05-07 12:54 | 61.86888 | -13.41741 | 35813 ft | 463 kts | 296° |
| 2026-05-07 12:54 | 61.89750 | -13.53963 | 35818 ft | 464 kts | 296° |
| 2026-05-07 12:55 | 61.92593 | -13.66170 | 35823 ft | 463 kts | 295° |
| 2026-05-07 12:55 | 61.95421 | -13.78379 | 35856 ft | 464 kts | 295° |
| 2026-05-07 12:56 | 61.98260 | -13.90709 | 35864 ft | 472 kts | 295° |
| 2026-05-07 12:56 | 62.01153 | -14.03347 | 35876 ft | 476 kts | 295° |
| 2026-05-07 12:57 | 62.04033 | -14.16000 | 35876 ft | 475 kts | 295° |
| 2026-05-07 12:57 | 62.06893 | -14.28641 | 35876 ft | 475 kts | 295° |
| 2026-05-07 12:58 | 62.09740 | -14.41305 | 35889 ft | 475 kts | 296° |
| 2026-05-07 12:58 | 62.12573 | -14.53972 | 35890 ft | 475 kts | 296° |
| 2026-05-07 12:59 | 62.15384 | -14.66622 | 35897 ft | 474 kts | 295° |
| 2026-05-07 12:59 | 62.18204 | -14.79388 | 35920 ft | 474 kts | 295° |
| 2026-05-07 13:00 | 62.20990 | -14.92076 | 35921 ft | 474 kts | 295° |
| 2026-05-07 13:00 | 62.23766 | -15.04797 | 35935 ft | 474 kts | 295° |
| 2026-05-07 13:01 | 62.26537 | -15.17567 | 35945 ft | 474 kts | 295° |
| 2026-05-07 13:01 | 62.29293 | -15.30352 | 35952 ft | 474 kts | 295° |
| 2026-05-07 13:02 | 62.32030 | -15.43119 | 35959 ft | 473 kts | 295° |
| 2026-05-07 13:02 | 62.34748 | -15.55878 | 35977 ft | 472 kts | 295° |
| 2026-05-07 13:03 | 62.37477 | -15.68771 | 35987 ft | 473 kts | 294° |
| 2026-05-07 13:03 | 62.40168 | -15.81560 | 35994 ft | 472 kts | 294° |
| 2026-05-07 13:04 | 62.42856 | -15.94411 | 35989 ft | 473 kts | 294° |
| 2026-05-07 13:04 | 62.45547 | -16.07361 | 35996 ft | 472 kts | 294° |
| 2026-05-07 13:05 | 62.48209 | -16.20255 | 36011 ft | 471 kts | 294° |
| 2026-05-07 13:05 | 62.50841 | -16.33081 | 36022 ft | 471 kts | 294° |
| 2026-05-07 13:06 | 62.53493 | -16.46079 | 36025 ft | 471 kts | 294° |
| 2026-05-07 13:06 | 62.56123 | -16.59056 | 36034 ft | 471 kts | 294° |
| 2026-05-07 13:07 | 62.58740 | -16.72054 | 36047 ft | 472 kts | 294° |
| 2026-05-07 13:07 | 62.61336 | -16.85027 | 36061 ft | 471 kts | 294° |
| 2026-05-07 13:08 | 62.63922 | -16.98035 | 36063 ft | 471 kts | 294° |
| 2026-05-07 13:08 | 62.66494 | -17.11051 | 36071 ft | 470 kts | 294° |
| 2026-05-07 13:09 | 62.69049 | -17.24072 | 36079 ft | 471 kts | 294° |
| 2026-05-07 13:09 | 62.71599 | -17.37144 | 36083 ft | 470 kts | 294° |
| 2026-05-07 13:10 | 62.74148 | -17.50299 | 36091 ft | 471 kts | 294° |
| 2026-05-07 13:10 | 62.76666 | -17.63382 | 36101 ft | 470 kts | 294° |
| 2026-05-07 13:11 | 62.79182 | -17.76539 | 36101 ft | 470 kts | 293° |
| 2026-05-07 13:11 | 62.81668 | -17.89630 | 36118 ft | 470 kts | 293° |
| 2026-05-07 13:12 | 62.84164 | -18.02850 | 36120 ft | 471 kts | 294° |
| 2026-05-07 13:12 | 62.86640 | -18.16059 | 36124 ft | 470 kts | 294° |
| 2026-05-07 13:13 | 62.89090 | -18.29215 | 36121 ft | 470 kts | 294° |
| 2026-05-07 13:13 | 62.91536 | -18.42439 | 36128 ft | 470 kts | 294° |
| 2026-05-07 13:14 | 62.93962 | -18.55641 | 36128 ft | 469 kts | 294° |
| 2026-05-07 13:14 | 62.95170 | -18.62247 | 35983 ft | 474 kts | 294° |
| 2026-05-07 13:14 | 62.96411 | -18.69061 | 35514 ft | 470 kts | 293° |
| 2026-05-07 13:15 | 62.97655 | -18.75498 | 35543 ft | 451 kts | 298° |
| 2026-05-07 13:15 | 62.99247 | -18.81273 | 35542 ft | 433 kts | 308° |
| 2026-05-07 13:15 | 63.01019 | -18.86351 | 35425 ft | 421 kts | 308° |
| 2026-05-07 13:15 | 63.02772 | -18.91486 | 34889 ft | 422 kts | 308° |
| 2026-05-07 13:16 | 63.04518 | -18.96708 | 34395 ft | 421 kts | 308° |
| 2026-05-07 13:16 | 63.06232 | -19.01887 | 33892 ft | 420 kts | 307° |
| 2026-05-07 13:16 | 63.07931 | -19.07061 | 33453 ft | 420 kts | 307° |
| 2026-05-07 13:16 | 63.09605 | -19.12187 | 33079 ft | 418 kts | 308° |
| 2026-05-07 13:17 | 63.11335 | -19.17506 | 32671 ft | 417 kts | 308° |
| 2026-05-07 13:17 | 63.13030 | -19.22737 | 32265 ft | 415 kts | 308° |
| 2026-05-07 13:17 | 63.14698 | -19.27897 | 31850 ft | 414 kts | 308° |
| 2026-05-07 13:17 | 63.16342 | -19.32999 | 31417 ft | 413 kts | 308° |
| 2026-05-07 13:18 | 63.17999 | -19.38154 | 30914 ft | 412 kts | 308° |
| 2026-05-07 13:18 | 63.19654 | -19.43310 | 30305 ft | 411 kts | 308° |
| 2026-05-07 13:18 | 63.21297 | -19.48447 | 29858 ft | 406 kts | 308° |
| 2026-05-07 13:18 | 63.22913 | -19.53511 | 29349 ft | 403 kts | 308° |
| 2026-05-07 13:19 | 63.24509 | -19.58520 | 28826 ft | 399 kts | 308° |
| 2026-05-07 13:19 | 63.26097 | -19.63518 | 28272 ft | 396 kts | 308° |
| 2026-05-07 13:19 | 63.27683 | -19.68521 | 27719 ft | 392 kts | 307° |
| 2026-05-07 13:19 | 63.29242 | -19.73449 | 27188 ft | 388 kts | 307° |
| 2026-05-07 13:20 | 63.30798 | -19.78377 | 26644 ft | 385 kts | 307° |
| 2026-05-07 13:20 | 63.32311 | -19.83179 | 26116 ft | 381 kts | 307° |
| 2026-05-07 13:20 | 63.33810 | -19.87949 | 25587 ft | 377 kts | 307° |
| 2026-05-07 13:20 | 63.35299 | -19.92694 | 25017 ft | 375 kts | 307° |
| 2026-05-07 13:21 | 63.36794 | -19.97471 | 24431 ft | 372 kts | 307° |
| 2026-05-07 13:21 | 63.38257 | -20.02155 | 23883 ft | 369 kts | 307° |
| 2026-05-07 13:21 | 63.39713 | -20.06824 | 23315 ft | 366 kts | 307° |
| 2026-05-07 13:21 | 63.41153 | -20.11454 | 22759 ft | 363 kts | 307° |
| 2026-05-07 13:22 | 63.42579 | -20.16046 | 22199 ft | 360 kts | 307° |
| 2026-05-07 13:22 | 63.43996 | -20.20621 | 21653 ft | 357 kts | 308° |
| 2026-05-07 13:22 | 63.45412 | -20.25201 | 21106 ft | 354 kts | 308° |
| 2026-05-07 13:22 | 63.46788 | -20.29658 | 20566 ft | 351 kts | 308° |
| 2026-05-07 13:23 | 63.48166 | -20.34133 | 20025 ft | 348 kts | 308° |
| 2026-05-07 13:23 | 63.49527 | -20.38563 | 19502 ft | 345 kts | 308° |
| 2026-05-07 13:23 | 63.50874 | -20.42953 | 18960 ft | 343 kts | 308° |
| 2026-05-07 13:23 | 63.52204 | -20.47298 | 18430 ft | 340 kts | 308° |
| 2026-05-07 13:24 | 63.53531 | -20.51638 | 17911 ft | 338 kts | 308° |
| 2026-05-07 13:24 | 63.54809 | -20.56074 | 17353 ft | 338 kts | 300° |
| 2026-05-07 13:24 | 63.55622 | -20.61020 | 16821 ft | 339 kts | 290° |
| 2026-05-07 13:24 | 63.56268 | -20.66063 | 16287 ft | 336 kts | 289° |
| 2026-05-07 13:25 | 63.56892 | -20.70956 | 15742 ft | 336 kts | 289° |
| 2026-05-07 13:25 | 63.57505 | -20.75871 | 15210 ft | 334 kts | 289° |
| 2026-05-07 13:25 | 63.58121 | -20.80863 | 14710 ft | 331 kts | 289° |
| 2026-05-07 13:25 | 63.58725 | -20.85803 | 14243 ft | 328 kts | 288° |
| 2026-05-07 13:26 | 63.59314 | -20.90650 | 13793 ft | 319 kts | 289° |
| 2026-05-07 13:26 | 63.59890 | -20.95408 | 13391 ft | 317 kts | 289° |
| 2026-05-07 13:26 | 63.60467 | -21.00174 | 13002 ft | 323 kts | 288° |
| 2026-05-07 13:26 | 63.61054 | -21.05061 | 12585 ft | 322 kts | 288° |
| 2026-05-07 13:27 | 63.61628 | -21.09862 | 12196 ft | 318 kts | 288° |
| 2026-05-07 13:27 | 63.62199 | -21.14650 | 11818 ft | 317 kts | 288° |
| 2026-05-07 13:27 | 63.62764 | -21.19401 | 11430 ft | 316 kts | 288° |
| 2026-05-07 13:27 | 63.63330 | -21.24181 | 11092 ft | 314 kts | 289° |
| 2026-05-07 13:28 | 63.63887 | -21.28899 | 10788 ft | 314 kts | 289° |
| 2026-05-07 13:28 | 63.64445 | -21.33629 | 10464 ft | 313 kts | 289° |
| 2026-05-07 13:28 | 63.64980 | -21.38212 | 10426 ft | 297 kts | 289° |
| 2026-05-07 13:28 | 63.65489 | -21.42573 | 10398 ft | 282 kts | 289° |
| 2026-05-07 13:29 | 63.65970 | -21.46711 | 10343 ft | 265 kts | 289° |
| 2026-05-07 13:29 | 63.66435 | -21.50693 | 10243 ft | 268 kts | 289° |
| 2026-05-07 13:29 | 63.66914 | -21.54793 | 10062 ft | 275 kts | 289° |
| 2026-05-07 13:29 | 63.67400 | -21.58991 | 9779 ft | 275 kts | 289° |
| 2026-05-07 13:30 | 63.67875 | -21.63119 | 9403 ft | 272 kts | 289° |
| 2026-05-07 13:30 | 63.68344 | -21.67205 | 9035 ft | 267 kts | 288° |
| 2026-05-07 13:30 | 63.68801 | -21.71187 | 8676 ft | 265 kts | 288° |
| 2026-05-07 13:30 | 63.69262 | -21.75211 | 8330 ft | 265 kts | 288° |
| 2026-05-07 13:31 | 63.69722 | -21.79246 | 7990 ft | 265 kts | 288° |
| 2026-05-07 13:31 | 63.70174 | -21.83224 | 7654 ft | 264 kts | 288° |
| 2026-05-07 13:31 | 63.70626 | -21.87201 | 7325 ft | 263 kts | 288° |
| 2026-05-07 13:31 | 63.71075 | -21.91175 | 7000 ft | 262 kts | 287° |
| 2026-05-07 13:32 | 63.71525 | -21.95164 | 6676 ft | 261 kts | 287° |
| 2026-05-07 13:32 | 63.71972 | -21.99143 | 6355 ft | 260 kts | 287° |
| 2026-05-07 13:32 | 63.72414 | -22.03081 | 6037 ft | 259 kts | 287° |
| 2026-05-07 13:32 | 63.72852 | -22.07005 | 5659 ft | 261 kts | 287° |
| 2026-05-07 13:33 | 63.73288 | -22.10920 | 5269 ft | 256 kts | 287° |
| 2026-05-07 13:33 | 63.73718 | -22.14793 | 4940 ft | 252 kts | 288° |
| 2026-05-07 13:33 | 63.74141 | -22.18605 | 4656 ft | 252 kts | 288° |
| 2026-05-07 13:33 | 63.74564 | -22.22424 | 4371 ft | 253 kts | 288° |
| 2026-05-07 13:34 | 63.74990 | -22.26283 | 4065 ft | 252 kts | 288° |
| 2026-05-07 13:34 | 63.75826 | -22.33902 | 3605 ft | 245 kts | 288° |
| 2026-05-07 13:34 | 63.76233 | -22.37498 | 3553 ft | 232 kts | 292° |
| 2026-05-07 13:35 | 63.76761 | -22.40844 | 3401 ft | 224 kts | 296° |
| 2026-05-07 13:35 | 63.77304 | -22.44126 | 3224 ft | 219 kts | 295° |
| 2026-05-07 13:35 | 63.77817 | -22.47279 | 3143 ft | 209 kts | 296° |
| 2026-05-07 13:35 | 63.78300 | -22.50272 | 3167 ft | 194 kts | 296° |
| 2026-05-07 13:36 | 63.78741 | -22.53009 | 3151 ft | 180 kts | 297° |
| 2026-05-07 13:36 | 63.79150 | -22.55553 | 3143 ft | 169 kts | 297° |
| 2026-05-07 13:36 | 63.79629 | -22.58020 | 3168 ft | 171 kts | 317° |
| 2026-05-07 13:36 | 63.80576 | -22.59312 | 3193 ft | 161 kts | 355° |
| 2026-05-07 13:37 | 63.81712 | -22.59464 | 2928 ft | 163 kts | 1° |
| 2026-05-07 13:37 | 63.82817 | -22.59605 | 2668 ft | 159 kts | 355° |
| 2026-05-07 13:37 | 63.83878 | -22.59991 | 2489 ft | 151 kts | 358° |
| 2026-05-07 13:37 | 63.84898 | -22.60195 | 2297 ft | 142 kts | 0° |
| 2026-05-07 13:38 | 63.85840 | -22.60323 | 2102 ft | 127 kts | 1° |
| 2026-05-07 13:38 | 63.86718 | -22.60396 | 2046 ft | 127 kts | 2° |
| 2026-05-07 13:38 | 63.87618 | -22.60442 | 1803 ft | 131 kts | 2° |
| 2026-05-07 13:38 | 63.88454 | -22.60479 | 1736 ft | 113 kts | 3° |
| 2026-05-07 13:39 | 63.89285 | -22.60490 | 1652 ft | 126 kts | 3° |
| 2026-05-07 13:39 | 63.90147 | -22.60505 | 1455 ft | 120 kts | 3° |
| 2026-05-07 13:39 | 63.90968 | -22.60513 | 1283 ft | 117 kts | 3° |
| 2026-05-07 13:39 | 63.91782 | -22.60517 | 1128 ft | 118 kts | 3° |
| 2026-05-07 13:40 | 63.92612 | -22.60526 | 954 ft | 119 kts | 2° |
| 2026-05-07 13:40 | 63.93425 | -22.60542 | 794 ft | 117 kts | 4° |
| 2026-05-07 13:40 | 63.94244 | -22.60545 | 628 ft | 117 kts | 2° |
| 2026-05-07 13:40 | 63.95065 | -22.60550 | 478 ft | 116 kts | 3° |
| 2026-05-07 13:41 | 63.95881 | -22.60553 | 301 ft | 118 kts | 2° |
| 2026-05-07 13:41 | 63.96697 | -22.60559 | 159 ft | 117 kts | 3° |
| 2026-05-07 13:41 | 63.97410 | -22.60549 | 167 ft | 71 kts | 1° |
| 2026-05-07 13:41 | 63.97815 | -22.60549 | 173 ft | 42 kts | 1° |
| 2026-05-07 13:42 | 63.98003 | -22.60566 | 174 ft | 20 kts | 352° |
| 2026-05-07 13:42 | 63.98145 | -22.60668 | 174 ft | 23 kts | 336° |
| 2026-05-07 13:42 | 63.98277 | -22.60833 | 171 ft | 12 kts | 330° |
| 2026-05-07 13:42 | 63.98310 | -22.60876 | 170 ft | 0 kts | 330° |
| 2026-05-07 13:43 | 63.98331 | -22.60905 | 170 ft | 5 kts | 331° |
| 2026-05-07 13:44 | 63.98373 | -22.60944 | 169 ft | 7 kts | 349° |
| 2026-05-07 13:44 | 63.98428 | -22.60951 | 169 ft | 8 kts | 1° |
| 2026-05-07 13:44 | 63.98495 | -22.60947 | 169 ft | 11 kts | 2° |